Brillion, Wisconsin
Current Conditions -  °F | °C
As of 4:56 PM on Thursday 27 Nov 2014 (Local Time) from KMTW Reporting Station
Clear Clear  
Wind Chill: -11°   Ceiling: Unl
Heat Index: -11°   Visibility: 10mi
Dew Point: -14°   Wind: 3mph
Humidity: 77%   Direction: 270°W
Pressure: 30.38"   Gusts: NA
Location:  44.18°N, 88.06°W
Report Text: KMTW 272256Z AUTO 27003KT 10SM CLR M11/M14 A3038 RMK AO2 SLP312 T11061139 FZRANO
Loading
Personal Weather Stations






























Interactive Weather Map New forecast layout! Learn more

10-Day Weather Forecast

Advertisements
Track Severe Weather on mobile